createdAt,value
2022-12-03T00:00:49.953Z,18.00
2022-12-03T00:03:26.368Z,18.60
2022-12-03T00:05:58.035Z,18.30
2022-12-03T00:08:29.572Z,18.30
2022-12-03T00:11:01.063Z,20.30
2022-12-03T00:13:32.661Z,15.30
2022-12-03T00:16:04.272Z,15.20
2022-12-03T00:18:35.791Z,14.90
2022-12-03T00:21:07.691Z,14.20
2022-12-03T00:23:42.216Z,14.10
2022-12-03T00:26:14.390Z,15.90
2022-12-03T00:28:45.890Z,16.10
2022-12-03T00:31:17.746Z,17.60
2022-12-03T00:33:49.335Z,19.60
2022-12-03T00:36:21.118Z,18.00
2022-12-03T00:38:52.647Z,19.20
2022-12-03T00:41:24.221Z,16.70
2022-12-03T00:43:57.738Z,18.50
2022-12-03T00:48:59.343Z,16.60
2022-12-03T00:51:30.860Z,14.00
2022-12-03T00:54:02.380Z,14.50
2022-12-03T00:56:33.918Z,13.20
2022-12-03T00:59:05.403Z,16.60
2022-12-03T01:01:37.257Z,20.20
2022-12-03T01:04:09.333Z,20.20
2022-12-03T01:06:41.072Z,18.40
2022-12-03T01:09:12.605Z,18.90
2022-12-03T01:11:44.311Z,18.10
2022-12-03T01:14:18.011Z,21.20
2022-12-03T01:16:49.806Z,18.60
2022-12-03T01:19:21.412Z,17.90
2022-12-03T01:21:53.586Z,17.00
2022-12-03T01:24:25.340Z,15.70
2022-12-03T01:26:57.665Z,13.20
2022-12-03T01:29:29.261Z,11.90
2022-12-03T01:32:19.512Z,13.80
2022-12-03T01:34:53.103Z,14.60
2022-12-03T01:39:55.723Z,13.50
2022-12-03T01:42:29.599Z,15.90
2022-12-03T01:45:01.858Z,15.70
2022-12-03T01:47:36.833Z,17.00
2022-12-03T01:50:16.372Z,17.20
2022-12-03T01:52:48.112Z,15.40
2022-12-03T01:55:22.318Z,17.30
2022-12-03T01:57:56.689Z,19.50
2022-12-03T02:00:29.645Z,17.60
2022-12-03T02:03:04.983Z,16.60
2022-12-03T02:05:37.392Z,16.90
2022-12-03T02:08:29.305Z,18.10
2022-12-03T02:11:04.054Z,15.80
2022-12-03T02:13:36.257Z,14.00
2022-12-03T02:16:09.436Z,13.60
2022-12-03T02:18:40.978Z,13.10
2022-12-03T02:21:21.446Z,13.10
2022-12-03T02:24:03.547Z,13.60
2022-12-03T02:26:35.056Z,14.00
2022-12-03T02:29:06.705Z,17.70
2022-12-03T02:31:38.358Z,17.80
2022-12-03T02:34:11.572Z,18.70
2022-12-03T02:36:43.065Z,18.20
2022-12-03T02:39:14.510Z,17.40
2022-12-03T02:42:03.631Z,18.00
2022-12-03T02:44:35.146Z,18.50
2022-12-03T02:47:07.240Z,18.10
2022-12-03T02:49:38.844Z,18.50
2022-12-03T02:52:10.450Z,19.00
2022-12-03T02:54:42.145Z,18.90
2022-12-03T02:57:14.122Z,17.30
2022-12-03T02:59:46.560Z,15.80
2022-12-03T03:02:18.433Z,12.70
2022-12-03T03:04:50.592Z,11.60
2022-12-03T03:07:22.518Z,12.90
2022-12-03T03:09:54.196Z,11.80
2022-12-03T03:12:26.168Z,12.20
2022-12-03T03:14:58.548Z,12.90
2022-12-03T03:17:30.079Z,14.80
2022-12-03T03:20:02.265Z,17.30
2022-12-03T03:22:38.241Z,15.50
2022-12-03T03:25:14.109Z,16.60
2022-12-03T03:27:46.163Z,16.30
2022-12-03T03:30:18.187Z,19.00
2022-12-03T03:32:49.691Z,17.30
2022-12-03T03:35:21.377Z,19.30
2022-12-03T03:37:53.494Z,20.40
2022-12-03T03:40:25.617Z,19.20
2022-12-03T03:42:57.847Z,19.70
2022-12-03T03:45:29.879Z,19.50
2022-12-03T03:48:02.401Z,17.90
2022-12-03T03:50:34.618Z,16.40
2022-12-03T03:53:06.904Z,12.90
2022-12-03T03:55:38.924Z,13.10
2022-12-03T03:58:10.626Z,12.50
2022-12-03T04:00:43.044Z,14.20
2022-12-03T04:03:15.386Z,17.10
2022-12-03T04:05:47.333Z,18.00
2022-12-03T04:08:18.914Z,17.80
2022-12-03T04:11:08.570Z,21.90
2022-12-03T04:13:40.180Z,18.60
2022-12-03T04:16:11.750Z,17.70
2022-12-03T04:18:46.447Z,18.80
2022-12-03T04:21:38.175Z,18.90
2022-12-03T04:24:11.990Z,17.60
2022-12-03T04:27:01.525Z,17.40
2022-12-03T04:29:33.080Z,14.30
2022-12-03T04:32:22.766Z,12.90
2022-12-03T04:35:11.980Z,14.30
2022-12-03T04:37:43.614Z,14.20
2022-12-03T04:40:29.673Z,14.60
2022-12-03T04:43:01.167Z,13.00
2022-12-03T04:45:32.768Z,17.30
2022-12-03T04:48:04.399Z,16.90
2022-12-03T04:50:35.922Z,19.60
2022-12-03T04:53:07.445Z,21.70
2022-12-03T04:55:38.981Z,17.80
2022-12-03T04:58:10.667Z,19.20
2022-12-03T05:00:42.273Z,21.40
2022-12-03T05:03:13.737Z,20.40
2022-12-03T05:05:45.300Z,20.70
2022-12-03T05:08:16.972Z,20.70
2022-12-03T05:10:48.782Z,22.20
2022-12-03T05:13:20.332Z,21.40
2022-12-03T05:15:51.847Z,20.10
2022-12-03T05:18:23.318Z,16.70
2022-12-03T05:20:54.917Z,15.90
2022-12-03T05:23:26.741Z,17.00
2022-12-03T05:25:58.493Z,15.30
2022-12-03T05:28:30.107Z,17.20
2022-12-03T05:31:01.736Z,15.00
2022-12-03T05:33:33.493Z,21.10
2022-12-03T05:36:05.167Z,23.10
2022-12-03T05:38:36.798Z,25.30
2022-12-03T05:41:28.878Z,30.10
2022-12-03T05:44:00.398Z,26.20
2022-12-03T05:46:32.848Z,25.80
2022-12-03T05:49:04.568Z,24.60
2022-12-03T05:51:36.092Z,23.00
2022-12-03T05:54:08.838Z,22.60
2022-12-03T05:56:40.448Z,18.10
2022-12-03T05:59:12.010Z,16.90
2022-12-03T06:01:43.481Z,17.50
2022-12-03T06:04:15.090Z,14.70
2022-12-03T06:06:46.632Z,15.90
2022-12-03T06:09:18.170Z,15.80
2022-12-03T06:11:53.616Z,21.60
2022-12-03T06:14:25.147Z,17.60
2022-12-03T06:16:56.887Z,20.10
2022-12-03T06:19:28.444Z,17.60
2022-12-03T06:21:59.957Z,16.00
2022-12-03T06:24:31.652Z,25.90
2022-12-03T06:27:03.184Z,19.70
2022-12-03T06:29:34.790Z,17.30
2022-12-03T06:32:07.004Z,16.10
2022-12-03T06:34:38.936Z,15.10
2022-12-03T06:37:10.452Z,19.20
2022-12-03T06:39:42.043Z,20.30
2022-12-03T06:42:13.691Z,24.40
2022-12-03T06:44:45.293Z,26.40
2022-12-03T06:47:16.867Z,21.20
2022-12-03T06:49:48.375Z,22.40
2022-12-03T06:52:19.872Z,21.20
2022-12-03T06:54:51.581Z,17.80
2022-12-03T06:57:23.350Z,18.00
2022-12-03T06:59:55.055Z,14.20
2022-12-03T07:02:26.837Z,13.00
2022-12-03T07:04:58.808Z,15.90
2022-12-03T07:07:33.323Z,16.90
2022-12-03T07:10:05.644Z,21.20
2022-12-03T07:12:37.919Z,23.90
2022-12-03T07:15:11.429Z,22.10
2022-12-03T07:20:14.419Z,20.40
2022-12-03T07:22:46.041Z,19.60
2022-12-03T07:25:22.787Z,21.50
2022-12-03T07:27:55.144Z,18.00
2022-12-03T07:30:27.908Z,14.60
2022-12-03T07:32:59.602Z,15.80
2022-12-03T07:35:31.142Z,12.70
2022-12-03T07:38:02.780Z,17.50
2022-12-03T07:40:34.341Z,20.90
2022-12-03T07:43:05.900Z,22.00
2022-12-03T07:45:37.428Z,24.80
2022-12-03T07:48:09.345Z,27.00
2022-12-03T07:50:40.862Z,26.90
2022-12-03T07:53:12.379Z,20.50
2022-12-03T07:55:43.882Z,16.90
2022-12-03T07:58:15.414Z,16.50
2022-12-03T08:00:46.954Z,19.80
2022-12-03T08:03:18.478Z,19.80
2022-12-03T08:05:50.322Z,21.60
2022-12-03T08:08:21.937Z,22.70
2022-12-03T08:10:53.441Z,22.80
2022-12-03T08:13:24.953Z,25.10
2022-12-03T08:15:58.479Z,23.20
2022-12-03T08:21:00.989Z,23.80
2022-12-03T08:23:32.622Z,20.10
2022-12-03T08:26:13.293Z,20.80
2022-12-03T08:28:46.126Z,16.30
2022-12-03T08:31:20.996Z,18.60
2022-12-03T08:33:55.144Z,20.00
2022-12-03T08:36:30.357Z,16.50
2022-12-03T08:39:15.915Z,16.40
2022-12-03T08:42:13.543Z,23.50
2022-12-03T08:44:46.059Z,25.60
2022-12-03T08:47:21.456Z,20.30
2022-12-03T08:52:47.121Z,19.70
2022-12-03T08:55:35.988Z,17.00
2022-12-03T09:01:43.432Z,16.30
2022-12-03T09:04:25.327Z,16.10
2022-12-03T09:06:58.065Z,14.50
2022-12-03T09:09:30.352Z,17.90
2022-12-03T09:12:02.942Z,15.20
2022-12-03T09:14:34.440Z,20.10
2022-12-03T09:17:06.529Z,20.20
2022-12-03T09:19:44.257Z,23.90
2022-12-03T09:22:17.555Z,19.20
2022-12-03T09:24:49.063Z,22.70
2022-12-03T09:27:22.557Z,22.90
2022-12-03T09:32:24.036Z,24.60
2022-12-03T09:34:56.049Z,20.90
2022-12-03T09:37:27.810Z,19.80
2022-12-03T09:39:59.317Z,19.40
2022-12-03T09:42:30.858Z,19.50
2022-12-03T09:45:02.999Z,18.70
2022-12-03T09:47:35.323Z,19.00
2022-12-03T09:50:13.721Z,25.40
2022-12-03T09:52:46.831Z,28.40
2022-12-03T09:55:22.377Z,24.10
2022-12-03T09:57:56.239Z,29.50
2022-12-03T10:00:30.387Z,24.60
2022-12-03T10:03:05.687Z,24.60
2022-12-03T10:05:37.293Z,25.20
2022-12-03T10:08:11.814Z,23.80
2022-12-03T10:10:44.940Z,23.80
2022-12-03T10:13:25.845Z,19.80
2022-12-03T10:16:00.090Z,17.10
2022-12-03T10:18:39.803Z,16.70
2022-12-03T10:24:25.869Z,16.40
2022-12-03T10:26:59.792Z,28.60
2022-12-03T10:38:08.203Z,18.70
2022-12-03T10:43:22.530Z,19.20
2022-12-03T10:46:13.504Z,18.00
2022-12-03T10:48:45.079Z,18.30
2022-12-03T10:51:21.362Z,23.30
2022-12-03T10:53:54.338Z,26.00
2022-12-03T10:56:27.726Z,30.00
2022-12-03T10:58:59.826Z,27.60
2022-12-03T11:01:32.900Z,27.30
2022-12-03T11:04:06.335Z,26.50
2022-12-03T11:09:20.143Z,26.90
2022-12-03T11:11:52.468Z,25.10
2022-12-03T11:15:05.310Z,27.80
2022-12-03T11:17:48.957Z,20.30
2022-12-03T11:21:15.268Z,23.20
2022-12-03T11:24:21.277Z,30.80
2022-12-03T11:27:24.921Z,29.80
2022-12-03T11:30:01.737Z,27.00
2022-12-03T11:33:07.353Z,27.70
2022-12-03T11:36:02.703Z,25.50
2022-12-03T11:41:36.048Z,20.30
2022-12-03T11:44:31.390Z,20.60
2022-12-03T11:47:14.873Z,19.60
2022-12-03T11:49:50.386Z,20.90
2022-12-03T11:55:27.476Z,31.40
2022-12-03T11:58:03.822Z,38.10
2022-12-03T12:00:35.390Z,33.60
2022-12-03T12:09:03.905Z,34.30
2022-12-03T12:11:37.039Z,33.90
2022-12-03T12:14:09.690Z,31.60
2022-12-03T12:16:53.160Z,26.00
2022-12-03T12:22:52.975Z,23.40
2022-12-03T12:25:43.758Z,27.30
2022-12-03T12:31:10.509Z,33.20
2022-12-03T12:36:32.274Z,31.90
2022-12-03T12:39:33.320Z,25.90
2022-12-03T12:42:10.066Z,26.80
2022-12-03T12:44:44.034Z,19.10
2022-12-03T12:47:15.669Z,37.00
2022-12-03T12:49:51.741Z,39.40
2022-12-03T12:55:14.952Z,41.20
2022-12-03T12:57:49.717Z,29.40
2022-12-03T13:00:24.929Z,31.80
2022-12-03T13:03:01.204Z,29.20
2022-12-03T13:08:32.144Z,30.70
2022-12-03T13:11:17.788Z,37.10
2022-12-03T13:14:01.815Z,38.10
2022-12-03T13:16:38.731Z,35.30
2022-12-03T13:28:23.948Z,28.20
2022-12-03T13:30:58.680Z,24.10
2022-12-03T13:33:31.022Z,33.60
2022-12-03T13:36:07.085Z,45.40
2022-12-03T13:38:38.747Z,34.10
2022-12-03T13:41:38.201Z,28.20
2022-12-03T13:44:21.077Z,26.20
2022-12-03T13:49:42.739Z,31.30
2022-12-03T13:52:20.543Z,36.90
2022-12-03T13:54:55.078Z,34.70
2022-12-03T13:57:27.125Z,25.00
2022-12-03T13:59:58.983Z,26.70
2022-12-03T14:02:30.601Z,27.00
2022-12-03T14:05:02.704Z,28.50
2022-12-03T14:07:34.462Z,38.30
2022-12-03T14:10:08.313Z,37.40
2022-12-03T14:12:48.488Z,34.20
2022-12-03T14:15:23.577Z,36.80
2022-12-03T14:18:02.913Z,31.70
2022-12-03T14:20:41.605Z,36.30
2022-12-03T14:23:13.189Z,24.30
2022-12-03T14:25:44.997Z,23.70
2022-12-03T14:28:16.484Z,36.50
2022-12-03T14:30:48.814Z,29.50
2022-12-03T14:33:23.114Z,35.50
2022-12-03T14:35:55.996Z,37.90
2022-12-03T14:38:27.548Z,31.60
2022-12-03T14:40:59.158Z,26.80
2022-12-03T14:43:38.208Z,20.00
2022-12-03T14:46:21.886Z,25.80
2022-12-03T14:51:28.757Z,43.60
2022-12-03T14:54:00.387Z,37.80
2022-12-03T14:56:34.722Z,26.30
2022-12-03T14:59:07.885Z,24.10
2022-12-03T15:01:39.641Z,29.20
2022-12-03T15:04:23.287Z,30.20
2022-12-03T15:06:54.833Z,29.20
2022-12-03T15:09:26.603Z,30.60
2022-12-03T15:11:59.478Z,32.40
2022-12-03T15:14:33.019Z,39.70
2022-12-03T15:17:05.028Z,38.80
2022-12-03T15:22:25.877Z,32.20
2022-12-03T15:24:57.424Z,29.60
2022-12-03T15:27:28.934Z,29.60
2022-12-03T15:30:00.505Z,31.00
2022-12-03T15:32:38.655Z,36.40
2022-12-03T15:35:15.000Z,33.40
2022-12-03T15:43:27.498Z,31.40
2022-12-03T15:45:59.050Z,30.10
2022-12-03T15:48:30.701Z,27.60
2022-12-03T15:51:02.205Z,28.80
2022-12-03T15:53:33.787Z,38.80
2022-12-03T15:56:06.103Z,40.80
2022-12-03T16:01:27.553Z,37.10
2022-12-03T16:03:59.245Z,41.90
2022-12-03T16:06:33.860Z,46.30
2022-12-03T16:11:50.960Z,38.40
2022-12-03T16:14:22.519Z,37.10
2022-12-03T16:19:46.681Z,26.70
2022-12-03T16:22:18.676Z,39.80
2022-12-03T16:33:27.058Z,29.10
2022-12-03T16:36:02.953Z,24.80
2022-12-03T16:38:42.185Z,36.40
2022-12-03T16:41:15.084Z,39.00
2022-12-03T16:43:48.584Z,41.30
2022-12-03T16:49:06.451Z,25.20
2022-12-03T16:51:37.983Z,22.60
2022-12-03T16:54:11.808Z,25.40
2022-12-03T16:59:33.969Z,33.40
2022-12-03T17:02:05.768Z,37.90
2022-12-03T17:04:37.475Z,32.50
2022-12-03T17:07:09.017Z,43.30
2022-12-03T17:09:41.039Z,40.40
2022-12-03T17:12:12.532Z,32.90
2022-12-03T17:14:44.113Z,28.30
2022-12-03T17:17:15.701Z,31.60
2022-12-03T17:19:47.210Z,29.70
2022-12-03T17:22:18.676Z,26.20
2022-12-03T17:24:50.348Z,27.70
2022-12-03T17:27:23.237Z,30.80
2022-12-03T17:29:54.928Z,39.00
2022-12-03T17:32:26.761Z,35.90
2022-12-03T17:34:58.572Z,45.10
2022-12-03T17:37:30.109Z,40.80
2022-12-03T17:40:01.624Z,38.00
2022-12-03T17:42:33.361Z,32.20
2022-12-03T17:45:05.882Z,30.00
2022-12-03T17:47:37.357Z,22.00
2022-12-03T17:50:12.025Z,27.70
2022-12-03T17:52:43.478Z,28.70
2022-12-03T17:55:24.158Z,33.30
2022-12-03T17:57:59.981Z,32.80
2022-12-03T18:00:31.941Z,29.70
2022-12-03T18:03:03.484Z,33.40
2022-12-03T18:05:35.007Z,25.80
2022-12-03T18:08:07.566Z,24.50
2022-12-03T18:10:39.158Z,31.40
2022-12-03T18:13:11.036Z,29.80
2022-12-03T18:15:42.721Z,28.30
2022-12-03T18:18:14.531Z,39.60
2022-12-03T18:20:46.042Z,40.80
2022-12-03T18:23:17.966Z,44.40
2022-12-03T18:25:49.926Z,44.10
2022-12-03T18:28:21.468Z,44.50
2022-12-03T18:30:53.147Z,47.10
2022-12-03T18:33:24.827Z,44.10
2022-12-03T18:35:58.665Z,34.50
2022-12-03T18:38:32.363Z,33.90
2022-12-03T18:41:04.908Z,31.80
2022-12-03T18:43:36.608Z,42.60
2022-12-03T18:46:31.306Z,40.60
2022-12-03T18:49:06.204Z,39.40
2022-12-03T18:51:38.192Z,41.30
2022-12-03T18:54:14.272Z,35.00
2022-12-03T18:56:45.861Z,31.90
2022-12-03T18:59:17.305Z,26.70
2022-12-03T19:01:48.835Z,26.70
2022-12-03T19:04:20.339Z,41.50
2022-12-03T19:06:52.379Z,43.60
2022-12-03T19:09:23.904Z,41.60
2022-12-03T19:11:55.462Z,49.90
2022-12-03T19:14:27.469Z,48.90
2022-12-03T19:16:59.288Z,45.90
2022-12-03T19:19:31.049Z,45.10
2022-12-03T19:22:02.757Z,45.10
2022-12-03T19:24:34.371Z,40.30
2022-12-03T19:27:05.911Z,38.70
2022-12-03T19:29:37.415Z,36.30
2022-12-03T19:32:09.961Z,31.90
2022-12-03T19:34:41.793Z,37.90
2022-12-03T19:37:13.285Z,36.60
2022-12-03T19:39:44.845Z,34.70
2022-12-03T19:42:17.327Z,30.60
2022-12-03T19:44:48.836Z,40.30
2022-12-03T19:47:20.316Z,34.50
2022-12-03T19:49:53.824Z,35.60
2022-12-03T19:52:25.723Z,42.30
2022-12-03T19:54:57.245Z,41.60
2022-12-03T19:57:29.318Z,43.70
2022-12-03T20:00:01.165Z,45.20
2022-12-03T20:02:32.739Z,45.70
2022-12-03T20:05:04.628Z,36.90
2022-12-03T20:07:36.139Z,35.70
2022-12-03T20:10:09.659Z,34.40
2022-12-03T20:12:41.164Z,38.80
2022-12-03T20:15:14.967Z,40.70
2022-12-03T20:17:46.428Z,37.10
2022-12-03T20:20:18.237Z,45.20
2022-12-03T20:22:49.855Z,44.80
2022-12-03T20:25:21.876Z,47.40
2022-12-03T20:27:53.405Z,50.10
2022-12-03T20:30:24.905Z,49.60
2022-12-03T20:32:56.425Z,45.90
2022-12-03T20:35:28.114Z,46.40
2022-12-03T20:37:59.685Z,42.70
2022-12-03T20:40:31.389Z,37.20
2022-12-03T20:43:02.881Z,34.80
2022-12-03T20:45:34.413Z,34.10
2022-12-03T20:48:08.240Z,31.80
2022-12-03T20:50:41.668Z,32.50
2022-12-03T20:53:27.676Z,44.30
2022-12-03T20:56:00.056Z,45.90
2022-12-03T20:58:32.116Z,50.30
2022-12-03T21:01:15.683Z,50.90
2022-12-03T21:03:48.368Z,50.40
2022-12-03T21:06:21.067Z,52.60
2022-12-03T21:08:55.108Z,53.60
2022-12-03T21:11:29.544Z,49.30
2022-12-03T21:14:01.347Z,50.40
2022-12-03T21:19:27.536Z,35.90
2022-12-03T21:21:59.142Z,33.50
2022-12-03T21:24:30.934Z,35.30
2022-12-03T21:27:02.724Z,36.80
2022-12-03T21:29:34.297Z,38.20
2022-12-03T21:32:06.004Z,36.00
2022-12-03T21:34:37.555Z,35.10
2022-12-03T21:37:09.032Z,42.90
2022-12-03T21:39:40.804Z,43.20
2022-12-03T21:42:34.189Z,44.60
2022-12-03T21:45:04.030Z,43.40
2022-12-03T21:47:37.536Z,41.50
2022-12-03T21:50:12.161Z,44.90
2022-12-03T21:52:44.297Z,42.60
2022-12-03T21:55:15.833Z,42.90
2022-12-03T21:57:47.363Z,44.60
2022-12-03T22:00:20.104Z,45.00
2022-12-03T22:02:52.516Z,48.40
2022-12-03T22:05:24.419Z,42.90
2022-12-03T22:07:55.923Z,37.70
2022-12-03T22:10:27.461Z,34.80
2022-12-03T22:12:59.388Z,31.40
2022-12-03T22:15:30.875Z,33.10
2022-12-03T22:18:02.377Z,31.00
2022-12-03T22:20:33.975Z,34.20
2022-12-03T22:23:05.549Z,32.00
2022-12-03T22:25:37.057Z,31.80
2022-12-03T22:28:08.672Z,35.80
2022-12-03T22:30:42.806Z,37.40
2022-12-03T22:33:14.370Z,39.50
2022-12-03T22:35:54.735Z,38.20
2022-12-03T22:38:26.785Z,38.50
2022-12-03T22:40:58.837Z,38.00
2022-12-03T22:43:30.393Z,36.60
2022-12-03T22:46:02.171Z,35.60
2022-12-03T22:48:35.908Z,35.80
2022-12-03T22:51:13.892Z,34.80
2022-12-03T22:53:45.425Z,29.10
2022-12-03T22:56:17.330Z,27.20
2022-12-03T22:58:48.881Z,27.10
2022-12-03T23:01:26.225Z,25.00
2022-12-03T23:03:58.577Z,27.90
2022-12-03T23:06:31.501Z,29.40
2022-12-03T23:09:03.133Z,28.60
2022-12-03T23:11:35.145Z,33.80
2022-12-03T23:14:06.872Z,36.20
2022-12-03T23:16:38.438Z,36.60
2022-12-03T23:19:10.019Z,35.00
2022-12-03T23:21:41.559Z,34.20
2022-12-03T23:24:13.617Z,33.30
2022-12-03T23:26:45.431Z,34.30
2022-12-03T23:29:17.143Z,34.20
2022-12-03T23:31:48.772Z,37.20
2022-12-03T23:34:20.389Z,36.40
2022-12-03T23:36:51.992Z,37.90
2022-12-03T23:39:23.491Z,36.80
2022-12-03T23:41:55.308Z,34.00
2022-12-03T23:44:28.063Z,30.40
2022-12-03T23:46:59.720Z,29.80
2022-12-03T23:49:32.097Z,28.10
2022-12-03T23:52:03.634Z,25.00
2022-12-03T23:54:35.215Z,26.20
2022-12-03T23:57:07.342Z,23.90
2022-12-03T23:59:39.204Z,22.70
